createdAt,value
2023-01-15T00:01:42.314Z,98967.91
2023-01-15T00:04:08.857Z,98965.97
2023-01-15T00:06:39.274Z,98968.13
2023-01-15T00:09:07.901Z,98975.00
2023-01-15T00:11:34.410Z,98970.72
2023-01-15T00:14:02.034Z,98970.56
2023-01-15T00:16:28.685Z,98978.34
2023-01-15T00:19:00.546Z,98971.47
2023-01-15T00:21:28.488Z,98968.13
2023-01-15T00:24:14.176Z,98958.63
2023-01-15T00:26:59.775Z,98961.22
2023-01-15T00:29:32.821Z,98969.19
2023-01-15T00:32:02.170Z,98964.78
2023-01-15T00:34:29.279Z,98975.94
2023-01-15T00:36:55.753Z,98979.34
2023-01-15T00:39:24.048Z,98971.56
2023-01-15T00:41:51.553Z,98973.25
2023-01-15T00:44:18.345Z,98975.00
2023-01-15T00:46:46.073Z,98974.22
2023-01-15T00:49:12.856Z,98977.69
2023-01-15T00:51:39.313Z,98985.44
2023-01-15T00:54:06.012Z,98971.78
2023-01-15T00:56:32.675Z,98982.06
2023-01-15T00:59:01.559Z,98977.78
2023-01-15T01:01:28.147Z,98979.41
2023-01-15T01:03:54.669Z,98981.31
2023-01-15T01:06:21.267Z,98983.88
2023-01-15T01:08:48.610Z,98992.50
2023-01-15T01:11:18.642Z,99002.81
2023-01-15T01:13:45.961Z,99000.28
2023-01-15T01:16:27.749Z,98998.56
2023-01-15T01:18:54.741Z,99009.84
2023-01-15T01:21:21.293Z,99004.69
2023-01-15T01:23:47.908Z,99008.97
2023-01-15T01:26:14.399Z,99002.00
2023-01-15T01:28:41.706Z,99012.41
2023-01-15T01:31:08.862Z,99015.78
2023-01-15T01:33:35.813Z,99014.06
2023-01-15T01:36:02.488Z,99012.44
2023-01-15T01:38:28.970Z,99022.81
2023-01-15T01:40:55.444Z,99021.94
2023-01-15T01:43:27.537Z,99017.47
2023-01-15T01:45:54.497Z,99027.06
2023-01-15T01:48:25.438Z,99012.41
2023-01-15T01:50:54.382Z,99017.50
2023-01-15T01:53:24.047Z,99009.84
2023-01-15T01:55:50.714Z,99018.34
2023-01-15T01:58:17.753Z,99021.88
2023-01-15T02:00:47.459Z,99016.75
2023-01-15T02:03:14.375Z,99015.81
2023-01-15T02:05:46.394Z,99014.19
2023-01-15T02:08:13.115Z,99017.53
2023-01-15T02:10:40.542Z,99014.06
2023-01-15T02:13:27.705Z,99018.41
2023-01-15T02:16:13.361Z,99018.34
2023-01-15T02:19:03.103Z,99013.25
2023-01-15T02:21:51.025Z,99013.09
2023-01-15T02:24:44.326Z,99003.72
2023-01-15T02:27:16.837Z,99004.63
2023-01-15T02:30:01.619Z,99011.41
2023-01-15T02:32:33.964Z,99009.69
2023-01-15T02:35:06.152Z,99012.34
2023-01-15T02:37:34.794Z,99011.56
2023-01-15T02:40:02.261Z,99015.75
2023-01-15T02:42:30.500Z,99010.44
2023-01-15T02:44:59.148Z,99008.69
2023-01-15T02:47:31.821Z,99012.31
2023-01-15T02:50:00.615Z,99015.00
2023-01-15T02:52:33.543Z,99027.09
2023-01-15T02:55:08.199Z,99018.31
2023-01-15T02:57:38.513Z,99019.31
2023-01-15T03:00:08.230Z,99026.25
2023-01-15T03:02:41.881Z,99017.41
2023-01-15T03:05:20.944Z,99017.56
2023-01-15T03:07:56.912Z,99015.84
2023-01-15T03:10:30.745Z,99003.59
2023-01-15T03:13:03.219Z,98997.69
2023-01-15T03:15:54.500Z,99011.41
2023-01-15T03:18:22.446Z,99008.81
2023-01-15T03:20:52.177Z,98988.97
2023-01-15T03:23:19.391Z,98991.63
2023-01-15T03:25:49.146Z,98996.00
2023-01-15T03:28:18.230Z,99003.81
2023-01-15T03:30:44.847Z,98984.78
2023-01-15T03:33:11.756Z,98976.84
2023-01-15T03:35:50.373Z,98973.53
2023-01-15T03:38:20.767Z,98965.66
2023-01-15T03:40:54.151Z,98966.63
2023-01-15T03:43:44.448Z,98952.78
2023-01-15T03:46:33.725Z,98959.66
2023-01-15T03:49:06.206Z,98955.44
2023-01-15T03:51:39.196Z,98942.53
2023-01-15T03:54:23.476Z,98945.91
2023-01-15T03:56:56.791Z,98949.28
2023-01-15T03:59:27.432Z,98945.06
2023-01-15T04:01:54.197Z,98939.88
2023-01-15T04:04:21.041Z,98942.28
2023-01-15T04:06:47.643Z,98936.31
2023-01-15T04:09:15.026Z,98934.72
2023-01-15T04:11:41.562Z,98934.72
2023-01-15T04:14:08.101Z,98947.69
2023-01-15T04:16:35.073Z,98943.34
2023-01-15T04:19:01.803Z,98945.09
2023-01-15T04:21:28.334Z,98941.47
2023-01-15T04:23:54.824Z,98944.16
2023-01-15T04:26:21.359Z,98933.63
2023-01-15T04:28:48.143Z,98938.88
2023-01-15T04:31:14.869Z,98941.66
2023-01-15T04:33:41.380Z,98945.06
2023-01-15T04:36:08.953Z,98932.03
2023-01-15T04:38:37.164Z,98937.25
2023-01-15T04:41:22.731Z,98951.06
2023-01-15T04:44:07.440Z,98927.78
2023-01-15T04:46:45.076Z,98931.94
2023-01-15T04:49:17.168Z,98923.47
2023-01-15T04:51:44.501Z,98930.28
2023-01-15T04:54:12.250Z,98931.94
2023-01-15T04:56:44.162Z,98924.31
2023-01-15T04:59:11.390Z,98929.47
2023-01-15T05:01:38.444Z,98923.38
2023-01-15T05:04:05.231Z,98924.25
2023-01-15T05:06:31.827Z,98926.97
2023-01-15T05:09:01.770Z,98921.81
2023-01-15T05:11:28.889Z,98916.63
2023-01-15T05:13:55.561Z,98913.00
2023-01-15T05:16:27.507Z,98909.63
2023-01-15T05:18:57.122Z,98905.28
2023-01-15T05:21:32.157Z,98913.00
2023-01-15T05:24:00.915Z,98912.19
2023-01-15T05:26:28.870Z,98916.63
2023-01-15T05:28:56.193Z,98927.00
2023-01-15T05:31:23.186Z,98927.75
2023-01-15T05:33:50.146Z,98918.19
2023-01-15T05:36:18.724Z,98919.91
2023-01-15T05:38:45.438Z,98911.47
2023-01-15T05:41:33.055Z,98917.44
2023-01-15T05:44:02.145Z,98927.72
2023-01-15T05:46:29.131Z,98923.38
2023-01-15T05:49:00.203Z,98919.84
2023-01-15T05:51:26.693Z,98918.31
2023-01-15T05:53:53.197Z,98925.09
2023-01-15T05:56:19.733Z,98934.72
2023-01-15T05:58:46.208Z,98932.00
2023-01-15T06:01:12.744Z,98929.44
2023-01-15T06:03:39.339Z,98939.03
2023-01-15T06:06:05.907Z,98925.97
2023-01-15T06:08:32.379Z,98930.41
2023-01-15T06:10:59.146Z,98933.03
2023-01-15T06:13:25.660Z,98924.47
2023-01-15T06:15:52.244Z,98928.59
2023-01-15T06:18:18.779Z,98927.66
2023-01-15T06:20:45.323Z,98927.63
2023-01-15T06:23:11.867Z,98916.25
2023-01-15T06:25:38.731Z,98926.84
2023-01-15T06:28:06.000Z,98934.69
2023-01-15T06:30:33.340Z,98930.34
2023-01-15T06:33:00.388Z,98926.84
2023-01-15T06:35:27.415Z,98920.81
2023-01-15T06:37:54.206Z,98922.50
2023-01-15T06:40:21.695Z,98931.22
2023-01-15T06:43:06.860Z,98920.91
2023-01-15T06:45:59.628Z,98919.09
2023-01-15T06:48:27.066Z,98930.06
2023-01-15T06:50:53.954Z,98926.72
2023-01-15T06:53:21.482Z,98920.69
2023-01-15T06:55:48.383Z,98922.44
2023-01-15T06:58:14.962Z,98912.88
2023-01-15T07:00:45.452Z,98925.06
2023-01-15T07:03:14.443Z,98918.22
2023-01-15T07:05:41.400Z,98919.91
2023-01-15T07:08:09.975Z,98915.66
2023-01-15T07:10:36.548Z,98912.13
2023-01-15T07:13:03.307Z,98912.22
2023-01-15T07:15:31.202Z,98914.78
2023-01-15T07:17:58.174Z,98916.59
2023-01-15T07:20:24.785Z,98924.38
2023-01-15T07:22:52.316Z,98911.41
2023-01-15T07:25:19.269Z,98922.69
2023-01-15T07:27:48.766Z,98934.75
2023-01-15T07:30:15.622Z,98925.03
2023-01-15T07:32:42.243Z,98932.81
2023-01-15T07:35:10.147Z,98925.78
2023-01-15T07:37:37.816Z,98943.22
2023-01-15T07:40:04.756Z,98928.47
2023-01-15T07:42:49.997Z,98938.81
2023-01-15T07:45:35.076Z,98932.84
2023-01-15T07:48:20.239Z,98920.88
2023-01-15T07:50:46.762Z,98925.06
2023-01-15T07:53:13.228Z,98919.94
2023-01-15T07:55:39.902Z,98926.78
2023-01-15T07:58:06.582Z,98919.94
2023-01-15T08:00:33.070Z,98926.94
2023-01-15T08:02:59.658Z,98925.19
2023-01-15T08:05:26.092Z,98930.31
2023-01-15T08:07:52.671Z,98923.41
2023-01-15T08:10:19.878Z,98923.41
2023-01-15T08:13:04.931Z,98907.94
2023-01-15T08:15:33.827Z,98914.72
2023-01-15T08:18:00.295Z,98925.19
2023-01-15T08:20:27.228Z,98923.50
2023-01-15T08:22:53.951Z,98920.84
2023-01-15T08:25:23.094Z,98923.38
2023-01-15T08:27:49.810Z,98925.91
2023-01-15T08:30:18.557Z,98932.19
2023-01-15T08:32:45.407Z,98919.94
2023-01-15T08:35:13.237Z,98917.50
2023-01-15T08:37:41.340Z,98921.75
2023-01-15T08:40:09.131Z,98913.94
2023-01-15T08:42:35.777Z,98897.59
2023-01-15T08:45:02.307Z,98908.91
2023-01-15T08:47:28.820Z,98909.72
2023-01-15T08:49:55.372Z,98911.25
2023-01-15T08:52:22.151Z,98901.97
2023-01-15T08:54:48.713Z,98902.84
2023-01-15T08:57:15.190Z,98902.69
2023-01-15T08:59:43.594Z,98895.78
2023-01-15T09:02:14.595Z,98901.81
2023-01-15T09:04:41.129Z,98892.44
2023-01-15T09:07:07.705Z,98896.53
2023-01-15T09:09:34.406Z,98907.88
2023-01-15T09:12:00.936Z,98903.72
2023-01-15T09:14:57.415Z,98904.31
2023-01-15T09:17:14.192Z,98896.69
2023-01-15T09:19:40.663Z,98896.66
2023-01-15T09:22:07.115Z,98910.56
2023-01-15T09:24:33.617Z,98897.41
2023-01-15T09:27:00.261Z,98916.41
2023-01-15T09:29:26.724Z,98907.81
2023-01-15T09:31:53.180Z,98907.09
2023-01-15T09:34:20.026Z,98907.84
2023-01-15T09:36:46.836Z,98911.34
2023-01-15T09:39:13.400Z,98910.56
2023-01-15T09:42:16.905Z,98906.13
2023-01-15T09:44:43.498Z,98899.75
2023-01-15T09:47:22.687Z,98906.19
2023-01-15T09:50:25.681Z,98897.44
2023-01-15T09:53:01.264Z,98913.94
2023-01-15T09:55:30.407Z,98904.38
2023-01-15T09:57:59.409Z,98906.22
2023-01-15T10:00:28.578Z,98901.94
2023-01-15T10:03:07.173Z,98906.22
2023-01-15T10:05:42.686Z,98882.03
2023-01-15T10:08:18.111Z,98876.69
2023-01-15T10:10:50.540Z,98887.06
2023-01-15T10:13:32.013Z,98871.66
2023-01-15T10:15:58.735Z,98873.97
2023-01-15T10:18:27.065Z,98875.13
2023-01-15T10:21:12.343Z,98883.53
2023-01-15T10:24:12.538Z,98867.94
2023-01-15T10:26:44.563Z,98873.34
2023-01-15T10:29:34.388Z,98854.34
2023-01-15T10:32:17.324Z,98867.13
2023-01-15T10:35:03.951Z,98861.22
2023-01-15T10:37:41.999Z,98859.31
2023-01-15T10:40:34.821Z,98862.72
2023-01-15T10:43:19.524Z,98860.28
2023-01-15T10:46:02.134Z,98863.63
2023-01-15T10:48:39.018Z,98857.25
2023-01-15T10:51:18.867Z,98859.50
2023-01-15T10:53:52.898Z,98857.75
2023-01-15T10:56:33.723Z,98849.03
2023-01-15T10:59:00.166Z,98852.59
2023-01-15T11:01:27.526Z,98855.09
2023-01-15T11:03:54.341Z,98840.09
2023-01-15T11:06:23.396Z,98853.41
2023-01-15T11:09:11.251Z,98851.72
2023-01-15T11:12:00.445Z,98851.50
2023-01-15T11:14:55.569Z,98828.50
2023-01-15T11:17:42.141Z,98835.00
2023-01-15T11:20:32.042Z,98831.47
2023-01-15T11:23:09.817Z,98831.88
2023-01-15T11:25:39.541Z,98814.56
2023-01-15T11:28:06.938Z,98823.16
2023-01-15T11:31:02.341Z,98816.38
2023-01-15T11:33:31.961Z,98822.31
2023-01-15T11:36:04.690Z,98822.56
2023-01-15T11:38:43.357Z,98820.63
2023-01-15T11:41:58.087Z,98819.81
2023-01-15T11:44:42.937Z,98830.03
2023-01-15T11:47:33.259Z,98835.34
2023-01-15T11:50:18.412Z,98824.19
2023-01-15T11:52:51.279Z,98822.34
2023-01-15T11:55:19.935Z,98803.16
2023-01-15T11:57:46.799Z,98803.94
2023-01-15T12:00:19.547Z,98806.59
2023-01-15T12:02:46.623Z,98791.34
2023-01-15T12:05:18.575Z,98788.50
2023-01-15T12:07:46.411Z,98779.88
2023-01-15T12:10:21.722Z,98793.50
2023-01-15T12:13:26.353Z,98780.50
2023-01-15T12:16:14.260Z,98780.53
2023-01-15T12:19:07.266Z,98759.81
2023-01-15T12:21:33.663Z,98750.19
2023-01-15T12:24:16.186Z,98748.25
2023-01-15T12:27:08.922Z,98744.16
2023-01-15T12:29:58.890Z,98755.56
2023-01-15T12:32:31.373Z,98756.16
2023-01-15T12:35:02.295Z,98746.41
2023-01-15T12:37:34.340Z,98745.94
2023-01-15T12:40:14.560Z,98732.50
2023-01-15T12:43:00.767Z,98735.66
2023-01-15T12:45:31.909Z,98729.94
2023-01-15T12:48:13.700Z,98733.91
2023-01-15T12:50:46.720Z,98726.50
2023-01-15T12:53:22.356Z,98719.75
2023-01-15T12:55:58.593Z,98716.16
2023-01-15T12:58:38.115Z,98720.53
2023-01-15T13:01:30.007Z,98718.81
2023-01-15T13:04:12.910Z,98720.16
2023-01-15T13:06:43.622Z,98689.91
2023-01-15T13:09:39.513Z,98687.75
2023-01-15T13:12:16.554Z,98678.97
2023-01-15T13:14:46.350Z,98680.09
2023-01-15T13:17:31.414Z,98675.81
2023-01-15T13:20:32.019Z,98688.72
2023-01-15T13:23:39.518Z,98685.38
2023-01-15T13:26:29.445Z,98674.75
2023-01-15T13:29:27.007Z,98685.38
2023-01-15T13:31:56.470Z,98673.41
2023-01-15T13:34:22.890Z,98666.56
2023-01-15T13:36:49.739Z,98685.34
2023-01-15T13:39:19.752Z,98667.16
2023-01-15T13:42:08.551Z,98663.00
2023-01-15T13:44:38.835Z,98682.78
2023-01-15T13:47:14.575Z,98667.22
2023-01-15T13:49:47.550Z,98650.91
2023-01-15T13:52:25.096Z,98658.78
2023-01-15T13:54:52.116Z,98659.59
2023-01-15T13:57:24.579Z,98667.41
2023-01-15T13:59:51.109Z,98657.09
2023-01-15T14:02:32.493Z,98669.09
2023-01-15T14:04:59.038Z,98654.53
2023-01-15T14:07:36.775Z,98652.84
2023-01-15T14:10:24.780Z,98664.91
2023-01-15T14:13:14.276Z,98663.97
2023-01-15T14:15:55.377Z,98659.59
2023-01-15T14:18:30.971Z,98663.13
2023-01-15T14:21:11.883Z,98679.44
2023-01-15T14:23:52.968Z,98697.53
2023-01-15T14:26:47.247Z,98703.63
2023-01-15T14:29:35.535Z,98721.72
2023-01-15T14:32:16.960Z,98712.34
2023-01-15T14:34:43.520Z,98741.66
2023-01-15T14:37:12.955Z,98730.34
2023-01-15T14:39:50.052Z,98710.63
2023-01-15T14:42:36.305Z,98721.84
2023-01-15T14:45:27.208Z,98739.09
2023-01-15T14:47:59.449Z,98713.22
2023-01-15T14:50:38.473Z,98723.56
2023-01-15T14:53:11.142Z,98722.69
2023-01-15T14:55:50.689Z,98718.44
2023-01-15T14:58:24.029Z,98713.22
2023-01-15T15:00:54.389Z,98720.09
2023-01-15T15:03:33.822Z,98708.03
2023-01-15T15:06:00.627Z,98726.16
2023-01-15T15:08:30.851Z,98733.88
2023-01-15T15:10:58.333Z,98735.53
2023-01-15T15:13:34.845Z,98738.22
2023-01-15T15:16:16.696Z,98733.88
2023-01-15T15:19:05.162Z,98729.56
2023-01-15T15:21:34.332Z,98734.78
2023-01-15T15:24:39.882Z,98751.16
2023-01-15T15:27:18.360Z,98752.91
2023-01-15T15:29:45.436Z,98759.75
2023-01-15T15:32:16.170Z,98752.88
2023-01-15T15:34:46.957Z,98752.03
2023-01-15T15:37:23.278Z,98758.94
2023-01-15T15:39:57.724Z,98759.72
2023-01-15T15:42:52.504Z,98754.56
2023-01-15T15:45:41.583Z,98773.56
2023-01-15T15:48:53.080Z,98789.94
2023-01-15T15:51:36.852Z,98796.84
2023-01-15T15:54:27.892Z,98795.97
2023-01-15T15:57:01.528Z,98817.53
2023-01-15T15:59:38.148Z,98827.88
2023-01-15T16:02:15.969Z,98824.41
2023-01-15T16:05:02.845Z,98828.72
2023-01-15T16:07:33.663Z,98821.78
2023-01-15T16:10:05.237Z,98845.91
2023-01-15T16:12:34.406Z,98852.84
2023-01-15T16:15:01.293Z,98869.22
2023-01-15T16:17:28.159Z,98859.72
2023-01-15T16:19:56.464Z,98883.75
2023-01-15T16:22:23.109Z,98868.34
2023-01-15T16:24:57.599Z,98872.50
2023-01-15T16:27:29.094Z,98885.59
2023-01-15T16:29:55.686Z,98906.28
2023-01-15T16:32:31.026Z,98911.22
2023-01-15T16:35:08.245Z,98894.13
2023-01-15T16:37:35.958Z,98905.34
2023-01-15T16:40:04.662Z,98869.16
2023-01-15T16:42:37.269Z,98869.25
2023-01-15T16:45:25.791Z,98875.25
2023-01-15T16:48:07.844Z,98896.84
2023-01-15T16:50:36.497Z,98903.75
2023-01-15T16:53:04.441Z,98885.63
2023-01-15T16:55:34.015Z,98897.72
2023-01-15T16:58:12.708Z,98902.78
2023-01-15T17:00:40.974Z,98914.91
2023-01-15T17:03:21.141Z,98920.16
2023-01-15T17:05:53.652Z,98912.38
2023-01-15T17:08:39.843Z,98907.19
2023-01-15T17:11:13.841Z,98910.66
2023-01-15T17:13:40.900Z,98927.91
2023-01-15T17:16:13.471Z,98935.59
2023-01-15T17:18:40.511Z,98958.06
2023-01-15T17:21:10.120Z,98942.56
2023-01-15T17:23:40.859Z,98947.66
2023-01-15T17:26:07.802Z,98958.97
2023-01-15T17:28:35.302Z,98972.78
2023-01-15T17:31:02.577Z,98966.72
2023-01-15T17:33:29.170Z,98964.16
2023-01-15T17:35:58.403Z,98953.78
2023-01-15T17:38:24.859Z,98973.66
2023-01-15T17:40:52.816Z,98970.19
2023-01-15T17:43:19.264Z,98987.38
2023-01-15T17:45:45.764Z,98981.31
2023-01-15T17:48:13.434Z,98980.50
2023-01-15T17:50:41.172Z,98996.03
2023-01-15T17:53:07.938Z,98988.28
2023-01-15T17:55:53.172Z,99025.38
2023-01-15T17:58:38.267Z,99022.81
2023-01-15T18:01:30.890Z,99024.56
2023-01-15T18:04:16.078Z,99030.63
2023-01-15T18:06:47.378Z,99028.03
2023-01-15T18:09:14.048Z,99033.13
2023-01-15T18:11:40.602Z,99010.72
2023-01-15T18:14:07.056Z,99021.09
2023-01-15T18:16:33.529Z,99033.16
2023-01-15T18:19:00.011Z,99033.97
2023-01-15T18:21:26.569Z,99030.50
2023-01-15T18:23:53.006Z,99028.81
2023-01-15T18:26:19.525Z,99028.78
2023-01-15T18:28:46.959Z,99040.63
2023-01-15T18:31:13.550Z,99033.91
2023-01-15T18:33:40.412Z,99052.84
2023-01-15T18:36:12.673Z,99044.31
2023-01-15T18:38:41.212Z,99057.16
2023-01-15T18:41:33.698Z,99066.63
2023-01-15T18:44:22.895Z,99075.22
2023-01-15T18:46:52.663Z,99083.69
2023-01-15T18:49:19.416Z,99087.31
2023-01-15T18:52:05.905Z,99096.13
2023-01-15T18:54:32.374Z,99095.91
2023-01-15T18:56:58.844Z,99084.81
2023-01-15T18:59:25.304Z,99118.31
2023-01-15T19:01:52.200Z,99103.91
2023-01-15T19:04:20.395Z,99121.97
2023-01-15T19:06:47.634Z,99116.78
2023-01-15T19:09:17.902Z,99130.72
2023-01-15T19:11:44.718Z,99127.84
2023-01-15T19:14:40.438Z,99151.72
2023-01-15T19:17:28.860Z,99138.91
2023-01-15T19:19:55.311Z,99129.53
2023-01-15T19:22:40.365Z,99125.97
2023-01-15T19:25:07.286Z,99133.81
2023-01-15T19:27:33.820Z,99131.09
2023-01-15T19:30:00.514Z,99149.38
2023-01-15T19:32:27.054Z,99149.41
2023-01-15T19:34:53.648Z,99166.41
2023-01-15T19:37:20.403Z,99166.56
2023-01-15T19:39:46.896Z,99156.25
2023-01-15T19:42:31.825Z,99157.97
2023-01-15T19:45:16.980Z,99164.78
2023-01-15T19:48:01.990Z,99170.84
2023-01-15T19:50:41.518Z,99169.06
2023-01-15T19:53:09.266Z,99173.44
2023-01-15T19:55:37.766Z,99179.56
2023-01-15T19:58:08.879Z,99169.06
2023-01-15T20:00:37.214Z,99183.00
2023-01-15T20:03:04.724Z,99194.34
2023-01-15T20:05:31.983Z,99202.81
2023-01-15T20:07:58.731Z,99202.22
2023-01-15T20:10:26.830Z,99200.28
2023-01-15T20:13:11.932Z,99200.03
2023-01-15T20:15:40.969Z,99201.00
2023-01-15T20:18:07.430Z,99206.63
2023-01-15T20:20:34.534Z,99206.94
2023-01-15T20:23:01.611Z,99207.88
2023-01-15T20:25:29.261Z,99215.00
2023-01-15T20:27:57.332Z,99207.34
2023-01-15T20:30:24.797Z,99208.22
2023-01-15T20:32:54.088Z,99211.66
2023-01-15T20:35:27.334Z,99201.13
2023-01-15T20:37:54.036Z,99203.81
2023-01-15T20:40:27.502Z,99208.03
2023-01-15T20:43:13.121Z,99207.06
2023-01-15T20:45:40.462Z,99201.97
2023-01-15T20:48:13.876Z,99216.75
2023-01-15T20:50:41.564Z,99210.72
2023-01-15T20:53:08.901Z,99220.81
2023-01-15T20:55:54.755Z,99210.81
2023-01-15T20:58:23.680Z,99213.34
2023-01-15T21:00:50.793Z,99212.28
2023-01-15T21:03:17.681Z,99216.81
2023-01-15T21:05:44.528Z,99229.69
2023-01-15T21:08:11.347Z,99224.53
2023-01-15T21:10:39.839Z,99229.91
2023-01-15T21:13:06.398Z,99224.63
2023-01-15T21:15:33.703Z,99233.34
2023-01-15T21:18:00.331Z,99225.59
2023-01-15T21:20:27.118Z,99233.28
2023-01-15T21:22:54.015Z,99231.50
2023-01-15T21:25:20.479Z,99237.34
2023-01-15T21:27:46.902Z,99234.06
2023-01-15T21:30:13.568Z,99234.84
2023-01-15T21:32:41.098Z,99229.50
2023-01-15T21:35:07.788Z,99224.59
2023-01-15T21:37:34.269Z,99228.75
2023-01-15T21:40:00.695Z,99229.69
2023-01-15T21:42:45.944Z,99216.78
2023-01-15T21:45:12.450Z,99227.06
2023-01-15T21:47:42.382Z,99230.25
2023-01-15T21:50:09.376Z,99235.44
2023-01-15T21:52:38.687Z,99227.63
2023-01-15T21:55:07.512Z,99232.09
2023-01-15T21:57:34.008Z,99226.19
2023-01-15T22:00:00.603Z,99237.59
2023-01-15T22:02:29.727Z,99240.00
2023-01-15T22:05:03.369Z,99243.59
2023-01-15T22:07:30.165Z,99239.31
2023-01-15T22:10:06.334Z,99243.66
2023-01-15T22:12:38.339Z,99246.03
2023-01-15T22:15:05.722Z,99240.03
2023-01-15T22:17:38.197Z,99254.03
2023-01-15T22:20:06.270Z,99254.19
2023-01-15T22:22:35.832Z,99246.41
2023-01-15T22:25:04.944Z,99251.50
2023-01-15T22:27:35.797Z,99246.47
2023-01-15T22:30:02.447Z,99238.53
2023-01-15T22:32:28.964Z,99235.13
2023-01-15T22:34:55.601Z,99246.22
2023-01-15T22:37:22.087Z,99239.44
2023-01-15T22:39:56.266Z,99247.16
2023-01-15T22:42:27.756Z,99246.31
2023-01-15T22:44:56.020Z,99244.41
2023-01-15T22:47:23.242Z,99249.72
2023-01-15T22:49:50.047Z,99238.34
2023-01-15T22:52:17.341Z,99239.34
2023-01-15T22:54:48.085Z,99244.56
2023-01-15T22:57:15.998Z,99249.66
2023-01-15T22:59:44.986Z,99241.28
2023-01-15T23:02:12.108Z,99245.41
2023-01-15T23:04:38.707Z,99242.66
2023-01-15T23:07:05.465Z,99241.97
2023-01-15T23:09:31.975Z,99248.84
2023-01-15T23:11:58.438Z,99241.00
2023-01-15T23:14:25.009Z,99247.75
2023-01-15T23:16:51.588Z,99248.56
2023-01-15T23:19:19.007Z,99240.22
2023-01-15T23:21:45.665Z,99245.06
2023-01-15T23:24:12.349Z,99249.72
2023-01-15T23:26:38.929Z,99249.59
2023-01-15T23:29:05.470Z,99255.06
2023-01-15T23:31:31.995Z,99248.88
2023-01-15T23:33:59.249Z,99241.81
2023-01-15T23:36:25.967Z,99251.34
2023-01-15T23:38:52.777Z,99250.28
2023-01-15T23:41:44.282Z,99247.84
2023-01-15T23:44:34.485Z,99250.56
2023-01-15T23:47:01.055Z,99246.38
2023-01-15T23:49:27.613Z,99235.91
2023-01-15T23:51:54.505Z,99241.63
2023-01-15T23:54:21.069Z,99240.97
2023-01-15T23:56:49.111Z,99245.09
2023-01-15T23:59:15.659Z,99248.78
